createdAt,value
2023-02-09T00:01:34.917Z,100496.97
2023-02-09T00:04:02.565Z,100497.06
2023-02-09T00:06:30.318Z,100490.19
2023-02-09T00:08:58.685Z,100488.31
2023-02-09T00:11:46.790Z,100484.16
2023-02-09T00:14:15.302Z,100482.59
2023-02-09T00:16:42.357Z,100487.75
2023-02-09T00:19:09.068Z,100493.97
2023-02-09T00:21:35.739Z,100478.00
2023-02-09T00:24:02.271Z,100482.09
2023-02-09T00:26:28.783Z,100479.88
2023-02-09T00:28:55.265Z,100487.72
2023-02-09T00:31:21.972Z,100483.50
2023-02-09T00:33:48.909Z,100489.47
2023-02-09T00:36:16.197Z,100487.91
2023-02-09T00:38:44.085Z,100494.53
2023-02-09T00:41:12.059Z,100480.00
2023-02-09T00:43:38.833Z,100474.13
2023-02-09T00:46:05.443Z,100472.44
2023-02-09T00:48:35.656Z,100466.72
2023-02-09T00:51:02.518Z,100462.66
2023-02-09T00:53:29.040Z,100456.81
2023-02-09T00:55:55.489Z,100455.91
2023-02-09T00:58:23.174Z,100449.16
2023-02-09T01:00:50.017Z,100454.81
2023-02-09T01:03:16.563Z,100450.41
2023-02-09T01:05:43.386Z,100443.66
2023-02-09T01:08:09.944Z,100446.44
2023-02-09T01:10:37.954Z,100449.72
2023-02-09T01:13:04.502Z,100450.28
2023-02-09T01:15:30.958Z,100456.38
2023-02-09T01:17:59.419Z,100449.50
2023-02-09T01:20:26.249Z,100454.13
2023-02-09T01:22:52.735Z,100445.78
2023-02-09T01:25:19.273Z,100446.16
2023-02-09T01:27:45.708Z,100444.13
2023-02-09T01:30:12.815Z,100443.44
2023-02-09T01:32:39.304Z,100437.34
2023-02-09T01:35:06.296Z,100434.16
2023-02-09T01:37:34.999Z,100427.69
2023-02-09T01:40:02.132Z,100435.78
2023-02-09T01:42:29.101Z,100426.59
2023-02-09T01:45:20.312Z,100417.34
2023-02-09T01:47:56.510Z,100428.84
2023-02-09T01:50:24.731Z,100431.78
2023-02-09T01:52:52.530Z,100424.50
2023-02-09T01:55:24.157Z,100428.97
2023-02-09T01:57:57.816Z,100417.53
2023-02-09T02:00:25.774Z,100430.50
2023-02-09T02:02:56.436Z,100422.78
2023-02-09T02:05:24.031Z,100426.03
2023-02-09T02:08:19.180Z,100414.41
2023-02-09T02:10:46.141Z,100410.59
2023-02-09T02:13:12.738Z,100415.34
2023-02-09T02:16:03.620Z,100414.25
2023-02-09T02:19:14.999Z,100398.09
2023-02-09T02:21:56.690Z,100396.69
2023-02-09T02:24:32.043Z,100398.81
2023-02-09T02:27:02.055Z,100395.22
2023-02-09T02:29:57.376Z,100395.72
2023-02-09T02:33:08.772Z,100383.78
2023-02-09T02:35:38.120Z,100377.44
2023-02-09T02:38:53.711Z,100366.88
2023-02-09T02:41:50.584Z,100363.75
2023-02-09T02:44:18.802Z,100367.47
2023-02-09T02:46:52.934Z,100365.47
2023-02-09T02:49:23.223Z,100358.03
2023-02-09T02:51:53.690Z,100361.63
2023-02-09T02:54:25.872Z,100356.00
2023-02-09T02:56:57.559Z,100358.06
2023-02-09T02:59:42.652Z,100353.56
2023-02-09T03:02:14.367Z,100360.88
2023-02-09T03:04:42.568Z,100338.69
2023-02-09T03:07:09.537Z,100346.59
2023-02-09T03:09:36.358Z,100345.81
2023-02-09T03:12:18.027Z,100332.84
2023-02-09T03:15:08.925Z,100337.34
2023-02-09T03:17:52.699Z,100331.69
2023-02-09T03:20:28.372Z,100322.56
2023-02-09T03:23:00.371Z,100335.53
2023-02-09T03:25:34.648Z,100322.44
2023-02-09T03:28:01.113Z,100324.38
2023-02-09T03:30:33.823Z,100325.19
2023-02-09T03:33:02.325Z,100326.09
2023-02-09T03:35:38.699Z,100328.56
2023-02-09T03:38:06.621Z,100331.16
2023-02-09T03:40:37.535Z,100323.81
2023-02-09T03:43:04.056Z,100324.94
2023-02-09T03:45:30.510Z,100323.38
2023-02-09T03:47:56.941Z,100329.78
2023-02-09T03:50:23.749Z,100331.25
2023-02-09T03:52:50.706Z,100322.38
2023-02-09T03:55:17.288Z,100320.44
2023-02-09T03:57:43.721Z,100321.81
2023-02-09T04:00:10.946Z,100321.91
2023-02-09T04:02:37.494Z,100323.59
2023-02-09T04:05:05.821Z,100326.31
2023-02-09T04:07:32.718Z,100322.81
2023-02-09T04:09:59.320Z,100320.44
2023-02-09T04:12:25.860Z,100320.22
2023-02-09T04:14:52.345Z,100324.28
2023-02-09T04:17:18.838Z,100310.63
2023-02-09T04:19:45.257Z,100323.59
2023-02-09T04:22:11.791Z,100317.53
2023-02-09T04:24:38.306Z,100312.13
2023-02-09T04:27:06.381Z,100308.06
2023-02-09T04:29:32.889Z,100317.31
2023-02-09T04:31:59.553Z,100319.44
2023-02-09T04:34:26.177Z,100306.03
2023-02-09T04:36:52.704Z,100304.25
2023-02-09T04:39:19.170Z,100309.97
2023-02-09T04:41:45.721Z,100314.25
2023-02-09T04:44:13.246Z,100308.16
2023-02-09T04:46:39.719Z,100310.63
2023-02-09T04:49:06.192Z,100318.88
2023-02-09T04:51:32.720Z,100323.34
2023-02-09T04:53:59.181Z,100315.00
2023-02-09T04:56:28.383Z,100313.09
2023-02-09T04:59:13.379Z,100305.44
2023-02-09T05:01:39.921Z,100317.44
2023-02-09T05:04:06.453Z,100310.13
2023-02-09T05:06:32.965Z,100315.75
2023-02-09T05:08:59.444Z,100303.97
2023-02-09T05:11:26.064Z,100303.28
2023-02-09T05:13:52.672Z,100294.16
2023-02-09T05:16:19.208Z,100289.78
2023-02-09T05:18:45.825Z,100292.25
2023-02-09T05:21:14.191Z,100299.22
2023-02-09T05:23:40.933Z,100299.69
2023-02-09T05:26:07.414Z,100296.97
2023-02-09T05:28:33.911Z,100298.13
2023-02-09T05:31:00.451Z,100291.56
2023-02-09T05:33:27.067Z,100284.81
2023-02-09T05:35:55.729Z,100287.50
2023-02-09T05:38:22.256Z,100294.16
2023-02-09T05:40:49.071Z,100287.97
2023-02-09T05:43:15.982Z,100289.31
2023-02-09T05:45:42.611Z,100286.25
2023-02-09T05:48:09.123Z,100282.53
2023-02-09T05:50:36.014Z,100285.22
2023-02-09T05:53:02.612Z,100280.94
2023-02-09T05:55:29.250Z,100277.81
2023-02-09T05:57:55.849Z,100276.00
2023-02-09T06:00:24.944Z,100276.56
2023-02-09T06:02:54.811Z,100290.97
2023-02-09T06:05:21.949Z,100283.50
2023-02-09T06:07:48.988Z,100286.09
2023-02-09T06:10:17.047Z,100281.53
2023-02-09T06:12:43.612Z,100288.78
2023-02-09T06:15:10.589Z,100288.56
2023-02-09T06:17:37.097Z,100284.31
2023-02-09T06:20:03.884Z,100301.81
2023-02-09T06:22:31.748Z,100309.56
2023-02-09T06:24:58.329Z,100301.59
2023-02-09T06:27:24.916Z,100304.97
2023-02-09T06:29:51.414Z,100296.63
2023-02-09T06:32:17.933Z,100305.41
2023-02-09T06:34:44.508Z,100309.03
2023-02-09T06:37:11.061Z,100312.09
2023-02-09T06:39:37.501Z,100305.91
2023-02-09T06:42:04.024Z,100317.44
2023-02-09T06:44:30.509Z,100314.59
2023-02-09T06:46:57.029Z,100313.13
2023-02-09T06:49:25.289Z,100311.69
2023-02-09T06:51:52.294Z,100305.28
2023-02-09T06:54:20.037Z,100302.28
2023-02-09T06:56:46.752Z,100302.75
2023-02-09T06:59:14.731Z,100299.38
2023-02-09T07:01:41.375Z,100300.53
2023-02-09T07:04:11.015Z,100300.88
2023-02-09T07:06:37.510Z,100293.59
2023-02-09T07:09:04.195Z,100292.25
2023-02-09T07:11:30.705Z,100290.31
2023-02-09T07:13:57.257Z,100284.34
2023-02-09T07:16:23.902Z,100272.31
2023-02-09T07:18:50.449Z,100264.44
2023-02-09T07:21:18.624Z,100279.34
2023-02-09T07:23:46.124Z,100289.34
2023-02-09T07:26:15.393Z,100282.03
2023-02-09T07:28:42.352Z,100286.84
2023-02-09T07:31:15.102Z,100285.63
2023-02-09T07:33:42.025Z,100276.06
2023-02-09T07:36:10.650Z,100272.91
2023-02-09T07:38:38.460Z,100267.03
2023-02-09T07:41:07.062Z,100268.22
2023-02-09T07:43:34.010Z,100268.41
2023-02-09T07:46:04.977Z,100272.28
2023-02-09T07:48:32.616Z,100268.19
2023-02-09T07:51:00.223Z,100264.63
2023-02-09T07:53:26.864Z,100267.47
2023-02-09T07:55:53.657Z,100278.16
2023-02-09T07:58:22.928Z,100285.63
2023-02-09T08:00:50.872Z,100310.03
2023-02-09T08:03:19.889Z,100311.66
2023-02-09T08:06:02.831Z,100321.38
2023-02-09T08:08:29.574Z,100306.25
2023-02-09T08:10:58.263Z,100308.69
2023-02-09T08:13:28.515Z,100294.00
2023-02-09T08:16:00.747Z,100289.03
2023-02-09T08:18:52.902Z,100275.19
2023-02-09T08:21:19.400Z,100257.56
2023-02-09T08:23:51.347Z,100256.88
2023-02-09T08:26:18.792Z,100260.38
2023-02-09T08:28:46.180Z,100253.47
2023-02-09T08:31:17.955Z,100260.97
2023-02-09T08:33:50.500Z,100256.59
2023-02-09T08:36:19.086Z,100269.97
2023-02-09T08:38:46.074Z,100277.06
2023-02-09T08:41:15.214Z,100275.28
2023-02-09T08:43:41.778Z,100274.47
2023-02-09T08:46:12.012Z,100280.66
2023-02-09T08:48:41.410Z,100271.59
2023-02-09T08:51:09.241Z,100276.38
2023-02-09T08:53:39.137Z,100278.88
2023-02-09T08:56:06.137Z,100280.09
2023-02-09T08:58:33.528Z,100279.88
2023-02-09T09:01:00.489Z,100280.25
2023-02-09T09:03:31.526Z,100284.84
2023-02-09T09:06:06.762Z,100280.31
2023-02-09T09:08:35.189Z,100275.47
2023-02-09T09:11:02.249Z,100283.69
2023-02-09T09:13:29.150Z,100280.53
2023-02-09T09:15:56.246Z,100280.44
2023-02-09T09:18:26.565Z,100283.44
2023-02-09T09:20:53.372Z,100274.31
2023-02-09T09:23:24.502Z,100277.38
2023-02-09T09:25:51.158Z,100277.19
2023-02-09T09:28:17.849Z,100275.66
2023-02-09T09:30:44.433Z,100275.22
2023-02-09T09:33:10.965Z,100271.34
2023-02-09T09:35:40.978Z,100272.00
2023-02-09T09:38:07.424Z,100274.59
2023-02-09T09:40:37.159Z,100274.50
2023-02-09T09:43:07.724Z,100288.25
2023-02-09T09:45:38.662Z,100281.50
2023-02-09T09:48:17.992Z,100295.19
2023-02-09T09:50:46.099Z,100298.50
2023-02-09T09:53:36.153Z,100303.47
2023-02-09T09:56:06.322Z,100301.38
2023-02-09T09:58:37.692Z,100301.78
2023-02-09T10:01:04.494Z,100302.09
2023-02-09T10:03:30.980Z,100304.91
2023-02-09T10:06:10.520Z,100312.34
2023-02-09T10:08:55.306Z,100331.63
2023-02-09T10:11:29.204Z,100338.41
2023-02-09T10:13:57.236Z,100336.69
2023-02-09T10:16:27.349Z,100336.06
2023-02-09T10:18:57.339Z,100334.94
2023-02-09T10:21:26.633Z,100345.28
2023-02-09T10:24:02.344Z,100335.72
2023-02-09T10:26:32.295Z,100335.31
2023-02-09T10:29:07.681Z,100339.72
2023-02-09T10:31:40.088Z,100345.69
2023-02-09T10:34:18.640Z,100350.91
2023-02-09T10:36:51.319Z,100347.41
2023-02-09T10:39:22.542Z,100342.94
2023-02-09T10:41:51.981Z,100342.19
2023-02-09T10:44:30.503Z,100333.94
2023-02-09T10:47:27.904Z,100337.84
2023-02-09T10:49:54.329Z,100332.06
2023-02-09T10:52:24.718Z,100326.91
2023-02-09T10:55:02.567Z,100324.72
2023-02-09T10:57:35.567Z,100322.19
2023-02-09T11:00:27.059Z,100321.78
2023-02-09T11:02:57.663Z,100321.75
2023-02-09T11:05:33.623Z,100321.03
2023-02-09T11:08:22.665Z,100321.94
2023-02-09T11:11:09.378Z,100318.81
2023-02-09T11:13:36.819Z,100320.97
2023-02-09T11:16:37.859Z,100324.06
2023-02-09T11:19:22.810Z,100329.47
2023-02-09T11:22:01.097Z,100330.44
2023-02-09T11:25:01.680Z,100336.72
2023-02-09T11:27:36.998Z,100340.91
2023-02-09T11:30:17.965Z,100340.72
2023-02-09T11:33:22.095Z,100329.22
2023-02-09T11:35:59.395Z,100325.34
2023-02-09T11:39:00.297Z,100321.63
2023-02-09T11:41:58.895Z,100323.44
2023-02-09T11:44:31.253Z,100306.50
2023-02-09T11:47:06.070Z,100298.06
2023-02-09T11:49:45.543Z,100293.22
2023-02-09T11:52:18.871Z,100281.44
2023-02-09T11:54:50.309Z,100284.97
2023-02-09T11:57:35.948Z,100286.97
2023-02-09T12:00:07.184Z,100292.28
2023-02-09T12:02:47.370Z,100290.50
2023-02-09T12:05:17.473Z,100302.28
2023-02-09T12:08:12.726Z,100293.22
2023-02-09T12:11:04.528Z,100297.22
2023-02-09T12:14:08.914Z,100285.56
2023-02-09T12:16:41.236Z,100268.66
2023-02-09T12:19:23.836Z,100263.63
2023-02-09T12:21:52.278Z,100261.56
2023-02-09T12:24:33.919Z,100244.09
2023-02-09T12:27:00.726Z,100246.84
2023-02-09T12:29:30.486Z,100244.09
2023-02-09T12:32:08.898Z,100240.94
2023-02-09T12:34:35.344Z,100253.66
2023-02-09T12:37:29.078Z,100247.53
2023-02-09T12:40:22.523Z,100239.16
2023-02-09T12:42:51.929Z,100216.69
2023-02-09T12:45:38.455Z,100205.47
2023-02-09T12:48:07.944Z,100214.28
2023-02-09T12:50:46.249Z,100234.53
2023-02-09T12:53:21.595Z,100245.56
2023-02-09T12:56:07.113Z,100230.53
2023-02-09T12:58:36.169Z,100228.06
2023-02-09T13:01:03.104Z,100223.81
2023-02-09T13:03:31.068Z,100219.41
2023-02-09T13:06:01.695Z,100226.28
2023-02-09T13:08:34.277Z,100225.47
2023-02-09T13:11:30.208Z,100230.03
2023-02-09T13:14:03.308Z,100224.06
2023-02-09T13:16:29.742Z,100232.59
2023-02-09T13:19:47.002Z,100231.50
2023-02-09T13:22:39.123Z,100241.69
2023-02-09T13:25:29.952Z,100241.44
2023-02-09T13:27:56.499Z,100239.56
2023-02-09T13:30:32.879Z,100241.34
2023-02-09T13:33:17.989Z,100254.34
2023-02-09T13:36:00.466Z,100260.56
2023-02-09T13:38:33.906Z,100257.19
2023-02-09T13:41:00.823Z,100257.94
2023-02-09T13:43:29.343Z,100265.84
2023-02-09T13:45:58.530Z,100245.00
2023-02-09T13:48:37.685Z,100251.16
2023-02-09T13:51:18.974Z,100253.59
2023-02-09T13:54:02.345Z,100257.72
2023-02-09T13:56:31.550Z,100258.59
2023-02-09T13:58:58.985Z,100256.75
2023-02-09T14:01:35.567Z,100254.94
2023-02-09T14:04:17.094Z,100265.22
2023-02-09T14:06:54.966Z,100257.31
2023-02-09T14:09:26.427Z,100252.97
2023-02-09T14:11:57.829Z,100244.16
2023-02-09T14:14:28.465Z,100251.94
2023-02-09T14:17:25.888Z,100265.22
2023-02-09T14:19:54.478Z,100259.84
2023-02-09T14:22:38.551Z,100263.44
2023-02-09T14:25:14.228Z,100252.97
2023-02-09T14:27:45.613Z,100253.72
2023-02-09T14:30:16.940Z,100247.59
2023-02-09T14:32:48.155Z,100249.16
2023-02-09T14:35:25.247Z,100247.19
2023-02-09T14:37:54.359Z,100248.59
2023-02-09T14:40:26.591Z,100243.22
2023-02-09T14:43:11.324Z,100251.56
2023-02-09T14:45:44.414Z,100247.69
2023-02-09T14:48:22.833Z,100242.25
2023-02-09T14:50:52.817Z,100232.47
2023-02-09T14:53:21.037Z,100228.78
2023-02-09T14:55:48.394Z,100241.75
2023-02-09T14:58:23.130Z,100234.75
2023-02-09T15:00:50.885Z,100231.22
2023-02-09T15:03:17.412Z,100241.44
2023-02-09T15:05:44.580Z,100239.47
2023-02-09T15:08:16.610Z,100229.84
2023-02-09T15:10:45.144Z,100225.50
2023-02-09T15:13:13.408Z,100221.84
2023-02-09T15:15:40.028Z,100210.50
2023-02-09T15:18:07.055Z,100204.22
2023-02-09T15:20:37.125Z,100204.03
2023-02-09T15:23:03.646Z,100196.19
2023-02-09T15:25:30.279Z,100193.44
2023-02-09T15:27:58.729Z,100181.06
2023-02-09T15:30:30.015Z,100181.88
2023-02-09T15:32:56.630Z,100194.72
2023-02-09T15:35:25.749Z,100192.88
2023-02-09T15:37:59.469Z,100196.22
2023-02-09T15:40:53.374Z,100186.50
2023-02-09T15:43:46.198Z,100197.69
2023-02-09T15:46:31.464Z,100203.72
2023-02-09T15:48:58.736Z,100208.69
2023-02-09T15:51:28.519Z,100200.59
2023-02-09T15:53:57.693Z,100197.19
2023-02-09T15:56:24.163Z,100208.53
2023-02-09T15:58:51.719Z,100196.38
2023-02-09T16:01:19.017Z,100205.91
2023-02-09T16:03:46.278Z,100208.75
2023-02-09T16:06:21.685Z,100220.03
2023-02-09T16:08:48.887Z,100210.41
2023-02-09T16:11:23.919Z,100208.38
2023-02-09T16:13:51.788Z,100208.38
2023-02-09T16:16:18.473Z,100218.88
2023-02-09T16:18:46.834Z,100213.00
2023-02-09T16:21:24.856Z,100217.09
2023-02-09T16:23:54.361Z,100224.56
2023-02-09T16:26:21.080Z,100232.47
2023-02-09T16:28:47.571Z,100233.38
2023-02-09T16:31:14.305Z,100237.88
2023-02-09T16:33:42.913Z,100244.16
2023-02-09T16:36:16.513Z,100250.38
2023-02-09T16:38:43.244Z,100262.59
2023-02-09T16:41:33.817Z,100258.28
2023-02-09T16:44:02.360Z,100262.59
2023-02-09T16:46:30.672Z,100268.38
2023-02-09T16:48:58.556Z,100273.13
2023-02-09T16:51:25.124Z,100274.09
2023-02-09T16:53:56.619Z,100282.41
2023-02-09T16:56:25.999Z,100285.94
2023-02-09T16:58:52.476Z,100289.50
2023-02-09T17:01:22.100Z,100296.53
2023-02-09T17:03:50.911Z,100292.78
2023-02-09T17:06:22.495Z,100295.09
2023-02-09T17:08:49.692Z,100283.69
2023-02-09T17:11:23.671Z,100301.06
2023-02-09T17:13:50.609Z,100297.72
2023-02-09T17:16:20.753Z,100312.16
2023-02-09T17:18:53.501Z,100313.66
2023-02-09T17:21:28.004Z,100319.59
2023-02-09T17:23:59.472Z,100318.91
2023-02-09T17:26:26.697Z,100311.81
2023-02-09T17:28:53.752Z,100315.97
2023-02-09T17:31:26.197Z,100320.38
2023-02-09T17:33:55.930Z,100319.19
2023-02-09T17:36:28.340Z,100314.59
2023-02-09T17:38:56.840Z,100320.25
2023-02-09T17:41:31.190Z,100321.06
2023-02-09T17:44:19.602Z,100322.88
2023-02-09T17:46:52.944Z,100328.72
2023-02-09T17:49:19.493Z,100331.59
2023-02-09T17:51:48.365Z,100331.72
2023-02-09T17:54:19.904Z,100323.97
2023-02-09T17:56:47.204Z,100324.78
2023-02-09T17:59:16.402Z,100331.06
2023-02-09T18:01:45.776Z,100335.72
2023-02-09T18:04:17.908Z,100345.25
2023-02-09T18:06:44.413Z,100349.50
2023-02-09T18:09:12.984Z,100346.25
2023-02-09T18:11:45.823Z,100336.19
2023-02-09T18:14:13.692Z,100331.00
2023-02-09T18:16:41.284Z,100327.56
2023-02-09T18:19:08.527Z,100336.19
2023-02-09T18:21:35.403Z,100335.91
2023-02-09T18:24:02.001Z,100337.53
2023-02-09T18:26:28.521Z,100342.75
2023-02-09T18:28:55.087Z,100345.34
2023-02-09T18:31:21.614Z,100339.97
2023-02-09T18:33:48.181Z,100346.97
2023-02-09T18:36:15.103Z,100334.13
2023-02-09T18:38:41.675Z,100331.97
2023-02-09T18:41:16.910Z,100335.94
2023-02-09T18:43:44.712Z,100336.75
2023-02-09T18:46:14.574Z,100330.00
2023-02-09T18:48:41.259Z,100330.59
2023-02-09T18:51:09.061Z,100342.84
2023-02-09T18:53:37.413Z,100339.44
2023-02-09T18:56:04.283Z,100352.66
2023-02-09T18:58:30.751Z,100354.28
2023-02-09T19:00:57.669Z,100367.41
2023-02-09T19:03:24.206Z,100357.88
2023-02-09T19:05:51.826Z,100364.72
2023-02-09T19:08:18.266Z,100368.75
2023-02-09T19:10:44.837Z,100372.34
2023-02-09T19:13:11.369Z,100377.28
2023-02-09T19:15:39.019Z,100371.72
2023-02-09T19:18:06.111Z,100378.44
2023-02-09T19:20:34.219Z,100388.88
2023-02-09T19:23:02.376Z,100391.41
2023-02-09T19:25:29.766Z,100395.38
2023-02-09T19:27:57.084Z,100395.88
2023-02-09T19:30:24.884Z,100397.41
2023-02-09T19:32:55.693Z,100391.22
2023-02-09T19:35:22.852Z,100389.22
2023-02-09T19:37:57.065Z,100400.44
2023-02-09T19:40:33.611Z,100399.38
2023-02-09T19:43:00.121Z,100399.19
2023-02-09T19:45:26.555Z,100400.78
2023-02-09T19:47:53.083Z,100400.00
2023-02-09T19:50:19.646Z,100400.00
2023-02-09T19:52:50.398Z,100393.06
2023-02-09T19:55:16.949Z,100401.59
2023-02-09T19:57:43.566Z,100397.38
2023-02-09T20:00:15.735Z,100396.28
2023-02-09T20:02:42.270Z,100390.09
2023-02-09T20:05:08.831Z,100394.22
2023-02-09T20:07:35.665Z,100388.00
2023-02-09T20:10:02.168Z,100388.09
2023-02-09T20:12:28.689Z,100379.47
2023-02-09T20:14:55.258Z,100382.16
2023-02-09T20:17:26.630Z,100377.03
2023-02-09T20:19:53.197Z,100373.03
2023-02-09T20:22:20.302Z,100365.47
2023-02-09T20:24:46.786Z,100362.78
2023-02-09T20:27:13.269Z,100361.16
2023-02-09T20:29:39.845Z,100373.56
2023-02-09T20:32:06.445Z,100369.78
2023-02-09T20:34:33.111Z,100366.63
2023-02-09T20:36:59.776Z,100367.38
2023-02-09T20:39:26.350Z,100369.97
2023-02-09T20:42:16.527Z,100364.75
2023-02-09T20:45:02.164Z,100372.41
2023-02-09T20:47:30.083Z,100357.56
2023-02-09T20:49:59.977Z,100373.38
2023-02-09T20:52:28.175Z,100375.19
2023-02-09T20:54:55.536Z,100367.66
2023-02-09T20:57:29.138Z,100361.72
2023-02-09T20:59:57.405Z,100365.41
2023-02-09T21:02:24.142Z,100367.50
2023-02-09T21:04:51.132Z,100373.88
2023-02-09T21:07:20.033Z,100362.00
2023-02-09T21:09:47.480Z,100368.41
2023-02-09T21:12:14.376Z,100377.38
2023-02-09T21:14:44.890Z,100368.94
2023-02-09T21:17:11.468Z,100370.75
2023-02-09T21:19:38.068Z,100369.94
2023-02-09T21:22:07.329Z,100364.97
2023-02-09T21:24:33.941Z,100371.25
2023-02-09T21:27:00.830Z,100370.47
2023-02-09T21:29:29.150Z,100370.19
2023-02-09T21:31:56.724Z,100369.19
2023-02-09T21:34:23.273Z,100363.09
2023-02-09T21:36:52.899Z,100371.09
2023-02-09T21:39:19.367Z,100369.84
2023-02-09T21:42:04.526Z,100366.41
2023-02-09T21:44:37.398Z,100366.50
2023-02-09T21:47:04.202Z,100380.28
2023-02-09T21:49:31.858Z,100376.94
2023-02-09T21:51:59.252Z,100371.88
2023-02-09T21:54:28.228Z,100380.59
2023-02-09T21:56:55.523Z,100373.97
2023-02-09T21:59:22.007Z,100370.72
2023-02-09T22:01:48.427Z,100378.25
2023-02-09T22:04:17.763Z,100373.28
2023-02-09T22:06:47.070Z,100367.91
2023-02-09T22:09:13.989Z,100369.44
2023-02-09T22:11:40.493Z,100368.56
2023-02-09T22:14:07.588Z,100372.66
2023-02-09T22:16:34.116Z,100371.91
2023-02-09T22:19:00.687Z,100373.69
2023-02-09T22:21:27.292Z,100376.28
2023-02-09T22:23:54.536Z,100380.63
2023-02-09T22:26:23.575Z,100382.34
2023-02-09T22:28:53.321Z,100385.84
2023-02-09T22:31:21.393Z,100382.41
2023-02-09T22:33:48.505Z,100387.72
2023-02-09T22:36:21.748Z,100383.47
2023-02-09T22:38:48.254Z,100386.19
2023-02-09T22:41:23.163Z,100380.22
2023-02-09T22:43:53.647Z,100395.81
2023-02-09T22:46:22.179Z,100394.09
2023-02-09T22:48:53.528Z,100404.81
2023-02-09T22:51:20.987Z,100417.13
2023-02-09T22:53:49.311Z,100416.16
2023-02-09T22:56:16.295Z,100407.50
2023-02-09T22:58:43.070Z,100418.78
2023-02-09T23:01:10.411Z,100424.69
2023-02-09T23:03:37.203Z,100427.50
2023-02-09T23:06:11.181Z,100424.16
2023-02-09T23:08:37.652Z,100424.31
2023-02-09T23:11:10.898Z,100429.72
2023-02-09T23:13:37.532Z,100429.91
2023-02-09T23:16:08.227Z,100427.38
2023-02-09T23:18:37.556Z,100442.00
2023-02-09T23:21:08.087Z,100433.25
2023-02-09T23:23:34.861Z,100430.97
2023-02-09T23:26:04.701Z,100429.91
2023-02-09T23:28:33.229Z,100441.78
2023-02-09T23:31:04.896Z,100446.84
2023-02-09T23:33:34.680Z,100448.47
2023-02-09T23:36:05.525Z,100449.19
2023-02-09T23:38:34.697Z,100451.72
2023-02-09T23:41:14.957Z,100452.63
2023-02-09T23:43:41.923Z,100456.94
2023-02-09T23:46:12.058Z,100460.44
2023-02-09T23:48:38.638Z,100464.66
2023-02-09T23:51:09.177Z,100468.09
2023-02-09T23:53:35.996Z,100477.00
2023-02-09T23:56:04.059Z,100473.69
2023-02-09T23:58:40.163Z,100469.34
